This is the latest recevied weather packets stored in our database for station/object HP1CDW-10. If no packets are shown the sender has not sent any weather packets the latest 10 day(s).
| Time | Temp. | Humidity | Pressure | Rain* | Wind** | Luminosity | Snow |
|---|---|---|---|---|---|---|---|
| 1777483864 | 37.78° C | 40% | 1001.2 hPa | - | - | - | - |
| 1777483259 | 37.78° C | 39% | 1001.3 hPa | - | - | - | - |
| 1777482654 | 37.22° C | 38% | 1001.5 hPa | - | - | - | - |
| 1777482049 | 36.67° C | 40% | 1001.5 hPa | - | - | - | - |
| 1777481445 | 37.22° C | 40% | 1001.7 hPa | - | - | - | - |
| 1777480840 | 36.11° C | 41% | 1001.8 hPa | - | - | - | - |
| 1777480235 | 36.67° C | 40% | 1001.9 hPa | - | - | - | - |
| 1777479630 | 35.56° C | 43% | 1002.1 hPa | - | - | - | - |
| 1777479026 | 35° C | 43% | 1002.2 hPa | - | - | - | - |
| 1777478421 | 36.11° C | 41% | 1002.3 hPa | - | - | - | - |
| 1777477211 | 34.44° C | 45% | 1002.4 hPa | - | - | - | - |
| 1777476606 | 33.89° C | 45% | 1002.5 hPa | - | - | - | - |
| 1777476002 | 34.44° C | 44% | 1002.6 hPa | - | - | - | - |
| 1777475397 | 35.56° C | 42% | 1002.5 hPa | - | - | - | - |
| 1777474792 | 35.56° C | 42% | 1002.6 hPa | - | - | - | - |
| 1777474187 | 35.56° C | 42% | 1002.7 hPa | - | - | - | - |
| 1777473582 | 34.44° C | 44% | 1002.8 hPa | - | - | - | - |
| 1777472978 | 35° C | 44% | 1002.9 hPa | - | - | - | - |
| 1777472373 | 33.89° C | 46% | 1002.9 hPa | - | - | - | - |
| 1777471126 | 33.89° C | 47% | 1002.9 hPa | - | - | - | - |
| 1777470522 | 33.89° C | 47% | 1002.8 hPa | - | - | - | - |
| 1777469312 | 33.33° C | 49% | 1003 hPa | - | - | - | - |
| 1777468707 | 35° C | 45% | 1002.8 hPa | - | - | - | - |
| 1777468102 | 33.89° C | 48% | 1002.8 hPa | - | - | - | - |
| 1777467498 | 35° C | 45% | 1002.6 hPa | - | - | - | - |
* Rain since midnight (hover to see other rain measurements)
** Current wind speed in m/s (hover to see current wind gust speed)